sensor_id;sensor_type;location;lat;lon;timestamp;P1;durP1;ratioP1;P2;durP2;ratioP2
6109;SDS011;3085;49.444;11.054;2024-03-06T00:01:53;18.63;;;7.97;;
6109;SDS011;3085;49.444;11.054;2024-03-06T00:04:21;28.43;;;9.87;;
6109;SDS011;3085;49.444;11.054;2024-03-06T00:06:47;16.53;;;8.40;;
6109;SDS011;3085;49.444;11.054;2024-03-06T00:09:16;22.43;;;10.20;;
6109;SDS011;3085;49.444;11.054;2024-03-06T00:11:43;28.40;;;10.53;;
6109;SDS011;3085;49.444;11.054;2024-03-06T00:14:10;23.63;;;9.87;;
6109;SDS011;3085;49.444;11.054;2024-03-06T00:16:38;18.87;;;8.53;;
6109;SDS011;3085;49.444;11.054;2024-03-06T00:19:05;18.40;;;8.23;;
6109;SDS011;3085;49.444;11.054;2024-03-06T00:21:32;20.70;;;9.63;;
6109;SDS011;3085;49.444;11.054;2024-03-06T00:23:58;19.97;;;8.40;;
6109;SDS011;3085;49.444;11.054;2024-03-06T00:26:25;18.50;;;9.50;;
6109;SDS011;3085;49.444;11.054;2024-03-06T00:28:52;19.57;;;8.70;;
6109;SDS011;3085;49.444;11.054;2024-03-06T00:31:18;22.00;;;10.00;;
6109;SDS011;3085;49.444;11.054;2024-03-06T00:33:46;20.07;;;9.47;;
6109;SDS011;3085;49.444;11.054;2024-03-06T00:36:13;23.47;;;9.77;;
6109;SDS011;3085;49.444;11.054;2024-03-06T00:38:40;21.63;;;9.13;;
6109;SDS011;3085;49.444;11.054;2024-03-06T00:41:06;24.07;;;9.83;;
6109;SDS011;3085;49.444;11.054;2024-03-06T00:43:33;23.50;;;11.30;;
6109;SDS011;3085;49.444;11.054;2024-03-06T00:46:00;23.93;;;11.53;;
6109;SDS011;3085;49.444;11.054;2024-03-06T00:48:27;26.20;;;9.50;;
6109;SDS011;3085;49.444;11.054;2024-03-06T00:50:55;30.83;;;11.60;;
6109;SDS011;3085;49.444;11.054;2024-03-06T00:53:21;22.77;;;9.30;;
6109;SDS011;3085;49.444;11.054;2024-03-06T00:55:49;26.97;;;10.93;;
6109;SDS011;3085;49.444;11.054;2024-03-06T00:58:16;25.37;;;10.33;;
6109;SDS011;3085;49.444;11.054;2024-03-06T01:00:42;25.63;;;9.30;;
6109;SDS011;3085;49.444;11.054;2024-03-06T01:03:09;26.57;;;8.90;;
6109;SDS011;3085;49.444;11.054;2024-03-06T01:05:36;18.90;;;8.80;;
6109;SDS011;3085;49.444;11.054;2024-03-06T01:08:04;21.90;;;9.53;;
6109;SDS011;3085;49.444;11.054;2024-03-06T01:10:31;28.13;;;9.93;;
6109;SDS011;3085;49.444;11.054;2024-03-06T01:12:58;26.33;;;10.37;;
6109;SDS011;3085;49.444;11.054;2024-03-06T01:15:24;30.03;;;11.57;;
6109;SDS011;3085;49.444;11.054;2024-03-06T01:17:51;22.67;;;9.97;;
6109;SDS011;3085;49.444;11.054;2024-03-06T01:20:17;23.90;;;9.90;;
6109;SDS011;3085;49.444;11.054;2024-03-06T01:22:44;30.67;;;10.27;;
6109;SDS011;3085;49.444;11.054;2024-03-06T01:25:13;29.63;;;12.03;;
6109;SDS011;3085;49.444;11.054;2024-03-06T01:27:40;17.10;;;9.37;;
6109;SDS011;3085;49.444;11.054;2024-03-06T01:30:07;21.47;;;9.67;;
6109;SDS011;3085;49.444;11.054;2024-03-06T01:32:34;26.40;;;11.07;;
6109;SDS011;3085;49.444;11.054;2024-03-06T01:35:02;31.03;;;10.00;;
6109;SDS011;3085;49.444;11.054;2024-03-06T01:37:30;22.17;;;9.70;;
6109;SDS011;3085;49.444;11.054;2024-03-06T01:39:56;20.30;;;8.90;;
6109;SDS011;3085;49.444;11.054;2024-03-06T01:42:24;25.53;;;11.00;;
6109;SDS011;3085;49.444;11.054;2024-03-06T01:44:51;24.97;;;10.50;;
6109;SDS011;3085;49.444;11.054;2024-03-06T01:47:18;21.63;;;9.00;;
6109;SDS011;3085;49.444;11.054;2024-03-06T01:49:44;24.30;;;9.60;;
6109;SDS011;3085;49.444;11.054;2024-03-06T01:52:13;25.13;;;8.90;;
6109;SDS011;3085;49.444;11.054;2024-03-06T01:54:41;36.60;;;10.53;;
6109;SDS011;3085;49.444;11.054;2024-03-06T01:57:08;22.73;;;10.00;;
6109;SDS011;3085;49.444;11.054;2024-03-06T01:59:39;18.50;;;8.50;;
6109;SDS011;3085;49.444;11.054;2024-03-06T02:02:07;24.97;;;9.93;;
6109;SDS011;3085;49.444;11.054;2024-03-06T02:04:36;24.27;;;9.30;;
6109;SDS011;3085;49.444;11.054;2024-03-06T02:07:03;24.27;;;10.60;;
6109;SDS011;3085;49.444;11.054;2024-03-06T02:09:35;25.40;;;10.13;;
6109;SDS011;3085;49.444;11.054;2024-03-06T02:12:01;25.23;;;10.67;;
6109;SDS011;3085;49.444;11.054;2024-03-06T02:14:28;25.97;;;10.43;;
6109;SDS011;3085;49.444;11.054;2024-03-06T02:16:56;22.67;;;10.67;;
6109;SDS011;3085;49.444;11.054;2024-03-06T02:19:23;25.80;;;10.83;;
6109;SDS011;3085;49.444;11.054;2024-03-06T02:21:53;29.27;;;13.20;;
6109;SDS011;3085;49.444;11.054;2024-03-06T02:24:19;25.03;;;10.03;;
6109;SDS011;3085;49.444;11.054;2024-03-06T02:26:46;26.40;;;9.67;;
6109;SDS011;3085;49.444;11.054;2024-03-06T02:29:13;26.93;;;10.87;;
6109;SDS011;3085;49.444;11.054;2024-03-06T02:31:40;25.20;;;11.20;;
6109;SDS011;3085;49.444;11.054;2024-03-06T02:34:07;24.77;;;10.17;;
6109;SDS011;3085;49.444;11.054;2024-03-06T02:36:33;31.83;;;13.27;;
6109;SDS011;3085;49.444;11.054;2024-03-06T02:39:02;22.40;;;8.83;;
6109;SDS011;3085;49.444;11.054;2024-03-06T02:41:33;26.63;;;10.23;;
6109;SDS011;3085;49.444;11.054;2024-03-06T02:44:00;23.87;;;10.10;;
6109;SDS011;3085;49.444;11.054;2024-03-06T02:46:27;26.00;;;10.20;;
6109;SDS011;3085;49.444;11.054;2024-03-06T02:48:54;27.17;;;10.30;;
6109;SDS011;3085;49.444;11.054;2024-03-06T02:51:21;34.10;;;10.40;;
6109;SDS011;3085;49.444;11.054;2024-03-06T02:53:48;28.67;;;12.23;;
6109;SDS011;3085;49.444;11.054;2024-03-06T02:56:19;21.83;;;10.40;;
6109;SDS011;3085;49.444;11.054;2024-03-06T02:58:46;27.63;;;11.70;;
6109;SDS011;3085;49.444;11.054;2024-03-06T03:01:13;24.87;;;10.33;;
6109;SDS011;3085;49.444;11.054;2024-03-06T03:03:40;31.20;;;10.33;;
6109;SDS011;3085;49.444;11.054;2024-03-06T03:06:07;30.17;;;10.43;;
6109;SDS011;3085;49.444;11.054;2024-03-06T03:08:34;25.77;;;11.87;;
6109;SDS011;3085;49.444;11.054;2024-03-06T03:11:01;25.80;;;11.27;;
6109;SDS011;3085;49.444;11.054;2024-03-06T03:13:29;26.23;;;11.80;;
6109;SDS011;3085;49.444;11.054;2024-03-06T03:15:56;25.20;;;10.80;;
6109;SDS011;3085;49.444;11.054;2024-03-06T03:18:23;24.30;;;11.50;;
6109;SDS011;3085;49.444;11.054;2024-03-06T03:20:50;32.17;;;10.90;;
6109;SDS011;3085;49.444;11.054;2024-03-06T03:23:17;39.00;;;12.53;;
6109;SDS011;3085;49.444;11.054;2024-03-06T03:25:47;37.87;;;12.70;;
6109;SDS011;3085;49.444;11.054;2024-03-06T03:28:13;25.80;;;12.10;;
6109;SDS011;3085;49.444;11.054;2024-03-06T03:30:43;33.77;;;13.00;;
6109;SDS011;3085;49.444;11.054;2024-03-06T03:33:10;34.30;;;12.37;;
6109;SDS011;3085;49.444;11.054;2024-03-06T03:35:37;24.87;;;11.30;;
6109;SDS011;3085;49.444;11.054;2024-03-06T03:38:04;26.67;;;11.30;;
6109;SDS011;3085;49.444;11.054;2024-03-06T03:40:31;38.90;;;13.17;;
6109;SDS011;3085;49.444;11.054;2024-03-06T03:42:58;26.30;;;10.90;;
6109;SDS011;3085;49.444;11.054;2024-03-06T03:45:31;33.53;;;12.60;;
6109;SDS011;3085;49.444;11.054;2024-03-06T03:47:59;30.80;;;12.77;;
6109;SDS011;3085;49.444;11.054;2024-03-06T03:50:27;35.70;;;12.20;;
6109;SDS011;3085;49.444;11.054;2024-03-06T03:52:54;32.17;;;12.20;;
6109;SDS011;3085;49.444;11.054;2024-03-06T03:55:22;38.43;;;11.30;;
6109;SDS011;3085;49.444;11.054;2024-03-06T03:57:49;32.20;;;11.63;;
6109;SDS011;3085;49.444;11.054;2024-03-06T04:00:16;36.70;;;12.07;;
6109;SDS011;3085;49.444;11.054;2024-03-06T04:02:43;32.40;;;12.53;;
6109;SDS011;3085;49.444;11.054;2024-03-06T04:05:11;25.20;;;11.57;;
6109;SDS011;3085;49.444;11.054;2024-03-06T04:07:38;32.60;;;12.77;;
6109;SDS011;3085;49.444;11.054;2024-03-06T04:10:05;28.50;;;11.30;;
6109;SDS011;3085;49.444;11.054;2024-03-06T04:12:35;35.13;;;14.90;;
6109;SDS011;3085;49.444;11.054;2024-03-06T04:15:03;33.53;;;12.80;;
6109;SDS011;3085;49.444;11.054;2024-03-06T04:17:30;36.50;;;13.10;;
6109;SDS011;3085;49.444;11.054;2024-03-06T04:19:57;38.13;;;12.10;;
6109;SDS011;3085;49.444;11.054;2024-03-06T04:22:25;41.60;;;13.90;;
6109;SDS011;3085;49.444;11.054;2024-03-06T04:24:52;36.13;;;14.90;;
6109;SDS011;3085;49.444;11.054;2024-03-06T04:27:20;39.70;;;12.80;;
6109;SDS011;3085;49.444;11.054;2024-03-06T04:29:46;38.73;;;13.77;;
6109;SDS011;3085;49.444;11.054;2024-03-06T04:32:13;34.20;;;13.60;;
6109;SDS011;3085;49.444;11.054;2024-03-06T04:34:40;44.07;;;14.87;;
6109;SDS011;3085;49.444;11.054;2024-03-06T04:37:06;33.47;;;13.70;;
6109;SDS011;3085;49.444;11.054;2024-03-06T04:39:34;37.47;;;13.90;;
6109;SDS011;3085;49.444;11.054;2024-03-06T04:42:01;27.83;;;11.13;;
6109;SDS011;3085;49.444;11.054;2024-03-06T04:44:28;36.43;;;12.53;;
6109;SDS011;3085;49.444;11.054;2024-03-06T04:46:54;31.93;;;13.10;;
6109;SDS011;3085;49.444;11.054;2024-03-06T04:49:21;32.40;;;14.40;;
6109;SDS011;3085;49.444;11.054;2024-03-06T04:51:48;31.40;;;13.10;;
6109;SDS011;3085;49.444;11.054;2024-03-06T04:54:14;36.17;;;12.97;;
6109;SDS011;3085;49.444;11.054;2024-03-06T04:56:42;33.73;;;13.57;;
6109;SDS011;3085;49.444;11.054;2024-03-06T04:59:09;32.93;;;13.80;;
6109;SDS011;3085;49.444;11.054;2024-03-06T05:01:35;34.77;;;12.80;;
6109;SDS011;3085;49.444;11.054;2024-03-06T05:04:02;32.67;;;14.47;;
6109;SDS011;3085;49.444;11.054;2024-03-06T05:06:29;35.67;;;14.10;;
6109;SDS011;3085;49.444;11.054;2024-03-06T05:08:55;40.07;;;14.47;;
6109;SDS011;3085;49.444;11.054;2024-03-06T05:11:22;36.50;;;13.07;;
6109;SDS011;3085;49.444;11.054;2024-03-06T05:13:50;33.83;;;13.00;;
6109;SDS011;3085;49.444;11.054;2024-03-06T05:16:17;31.30;;;13.10;;
6109;SDS011;3085;49.444;11.054;2024-03-06T05:18:44;40.70;;;15.00;;
6109;SDS011;3085;49.444;11.054;2024-03-06T05:21:10;29.37;;;12.23;;
6109;SDS011;3085;49.444;11.054;2024-03-06T05:23:37;38.90;;;14.50;;
6109;SDS011;3085;49.444;11.054;2024-03-06T05:26:04;40.73;;;14.50;;
6109;SDS011;3085;49.444;11.054;2024-03-06T05:28:31;33.90;;;13.63;;
6109;SDS011;3085;49.444;11.054;2024-03-06T05:30:59;40.57;;;13.23;;
6109;SDS011;3085;49.444;11.054;2024-03-06T05:33:26;33.60;;;12.70;;
6109;SDS011;3085;49.444;11.054;2024-03-06T05:35:55;29.00;;;12.80;;
6109;SDS011;3085;49.444;11.054;2024-03-06T05:38:21;37.57;;;14.47;;
6109;SDS011;3085;49.444;11.054;2024-03-06T05:40:48;37.03;;;14.17;;
6109;SDS011;3085;49.444;11.054;2024-03-06T05:43:15;41.37;;;14.47;;
6109;SDS011;3085;49.444;11.054;2024-03-06T05:45:41;34.37;;;13.20;;
6109;SDS011;3085;49.444;11.054;2024-03-06T05:48:09;35.83;;;14.57;;
6109;SDS011;3085;49.444;11.054;2024-03-06T05:50:36;38.07;;;15.37;;
6109;SDS011;3085;49.444;11.054;2024-03-06T05:53:03;33.27;;;13.90;;
6109;SDS011;3085;49.444;11.054;2024-03-06T05:55:30;30.97;;;12.50;;
6109;SDS011;3085;49.444;11.054;2024-03-06T05:57:57;36.50;;;14.70;;
6109;SDS011;3085;49.444;11.054;2024-03-06T06:00:24;31.70;;;14.03;;
6109;SDS011;3085;49.444;11.054;2024-03-06T06:02:51;36.73;;;12.47;;
6109;SDS011;3085;49.444;11.054;2024-03-06T06:05:19;38.17;;;14.60;;
6109;SDS011;3085;49.444;11.054;2024-03-06T06:07:47;34.67;;;13.63;;
6109;SDS011;3085;49.444;11.054;2024-03-06T06:10:15;35.80;;;11.43;;
6109;SDS011;3085;49.444;11.054;2024-03-06T06:12:41;36.80;;;13.73;;
6109;SDS011;3085;49.444;11.054;2024-03-06T06:15:08;47.07;;;15.13;;
6109;SDS011;3085;49.444;11.054;2024-03-06T06:17:36;29.80;;;13.50;;
6109;SDS011;3085;49.444;11.054;2024-03-06T06:20:03;42.83;;;14.60;;
6109;SDS011;3085;49.444;11.054;2024-03-06T06:22:40;42.33;;;14.23;;
6109;SDS011;3085;49.444;11.054;2024-03-06T06:25:07;20.73;;;8.80;;
6109;SDS011;3085;49.444;11.054;2024-03-06T06:27:34;45.20;;;15.20;;
6109;SDS011;3085;49.444;11.054;2024-03-06T06:30:01;41.13;;;17.17;;
6109;SDS011;3085;49.444;11.054;2024-03-06T06:32:28;39.70;;;15.03;;
6109;SDS011;3085;49.444;11.054;2024-03-06T06:34:55;39.93;;;15.50;;
6109;SDS011;3085;49.444;11.054;2024-03-06T06:37:22;37.67;;;14.10;;
6109;SDS011;3085;49.444;11.054;2024-03-06T06:39:50;45.27;;;12.77;;
6109;SDS011;3085;49.444;11.054;2024-03-06T06:42:17;45.20;;;13.97;;
6109;SDS011;3085;49.444;11.054;2024-03-06T06:44:44;53.27;;;13.73;;
6109;SDS011;3085;49.444;11.054;2024-03-06T06:47:11;37.60;;;14.23;;
6109;SDS011;3085;49.444;11.054;2024-03-06T06:49:38;38.90;;;15.03;;
6109;SDS011;3085;49.444;11.054;2024-03-06T06:52:05;43.63;;;14.83;;
6109;SDS011;3085;49.444;11.054;2024-03-06T06:54:32;33.40;;;12.20;;
6109;SDS011;3085;49.444;11.054;2024-03-06T06:57:00;37.50;;;15.33;;
6109;SDS011;3085;49.444;11.054;2024-03-06T06:59:28;38.53;;;13.13;;
6109;SDS011;3085;49.444;11.054;2024-03-06T07:01:55;39.50;;;14.27;;
6109;SDS011;3085;49.444;11.054;2024-03-06T07:04:21;36.43;;;14.30;;
6109;SDS011;3085;49.444;11.054;2024-03-06T07:06:49;45.20;;;17.47;;
6109;SDS011;3085;49.444;11.054;2024-03-06T07:09:16;44.33;;;16.10;;
6109;SDS011;3085;49.444;11.054;2024-03-06T07:11:43;46.60;;;14.67;;
6109;SDS011;3085;49.444;11.054;2024-03-06T07:14:11;43.57;;;15.07;;
6109;SDS011;3085;49.444;11.054;2024-03-06T07:16:41;44.47;;;15.10;;
6109;SDS011;3085;49.444;11.054;2024-03-06T07:19:08;41.93;;;15.40;;
6109;SDS011;3085;49.444;11.054;2024-03-06T07:21:35;36.57;;;14.47;;
6109;SDS011;3085;49.444;11.054;2024-03-06T07:24:02;52.97;;;14.60;;
6109;SDS011;3085;49.444;11.054;2024-03-06T07:26:29;38.20;;;15.60;;
6109;SDS011;3085;49.444;11.054;2024-03-06T07:28:58;42.80;;;15.67;;
6109;SDS011;3085;49.444;11.054;2024-03-06T07:31:26;45.57;;;15.40;;
6109;SDS011;3085;49.444;11.054;2024-03-06T07:33:53;43.13;;;14.43;;
6109;SDS011;3085;49.444;11.054;2024-03-06T07:36:20;41.70;;;14.93;;
6109;SDS011;3085;49.444;11.054;2024-03-06T07:38:47;40.03;;;12.97;;
6109;SDS011;3085;49.444;11.054;2024-03-06T07:41:14;39.77;;;14.77;;
6109;SDS011;3085;49.444;11.054;2024-03-06T07:43:40;32.83;;;13.00;;
6109;SDS011;3085;49.444;11.054;2024-03-06T07:46:07;39.33;;;13.60;;
6109;SDS011;3085;49.444;11.054;2024-03-06T07:48:36;37.13;;;13.10;;
6109;SDS011;3085;49.444;11.054;2024-03-06T07:51:04;45.20;;;15.33;;
6109;SDS011;3085;49.444;11.054;2024-03-06T07:53:31;36.47;;;14.23;;
6109;SDS011;3085;49.444;11.054;2024-03-06T07:55:57;34.83;;;11.60;;
6109;SDS011;3085;49.444;11.054;2024-03-06T07:58:24;39.77;;;13.40;;
6109;SDS011;3085;49.444;11.054;2024-03-06T08:00:51;35.00;;;12.03;;
6109;SDS011;3085;49.444;11.054;2024-03-06T08:03:20;49.73;;;14.67;;
6109;SDS011;3085;49.444;11.054;2024-03-06T08:05:49;42.07;;;13.70;;
6109;SDS011;3085;49.444;11.054;2024-03-06T08:08:17;39.87;;;12.93;;
6109;SDS011;3085;49.444;11.054;2024-03-06T08:10:44;30.37;;;12.77;;
6109;SDS011;3085;49.444;11.054;2024-03-06T08:13:11;33.67;;;11.50;;
6109;SDS011;3085;49.444;11.054;2024-03-06T08:15:37;35.87;;;12.30;;
6109;SDS011;3085;49.444;11.054;2024-03-06T08:18:05;33.17;;;13.03;;
6109;SDS011;3085;49.444;11.054;2024-03-06T08:20:32;51.80;;;14.90;;
6109;SDS011;3085;49.444;11.054;2024-03-06T08:23:00;29.70;;;11.60;;
6109;SDS011;3085;49.444;11.054;2024-03-06T08:25:27;26.63;;;9.70;;
6109;SDS011;3085;49.444;11.054;2024-03-06T08:27:54;27.00;;;10.77;;
6109;SDS011;3085;49.444;11.054;2024-03-06T08:30:21;32.03;;;11.53;;
6109;SDS011;3085;49.444;11.054;2024-03-06T08:32:48;28.90;;;11.83;;
6109;SDS011;3085;49.444;11.054;2024-03-06T08:35:15;34.10;;;11.30;;
6109;SDS011;3085;49.444;11.054;2024-03-06T08:37:45;25.23;;;9.20;;
6109;SDS011;3085;49.444;11.054;2024-03-06T08:40:13;26.93;;;10.37;;
6109;SDS011;3085;49.444;11.054;2024-03-06T08:42:40;32.47;;;12.40;;
6109;SDS011;3085;49.444;11.054;2024-03-06T08:45:07;31.90;;;10.60;;
6109;SDS011;3085;49.444;11.054;2024-03-06T08:47:34;28.43;;;11.10;;
6109;SDS011;3085;49.444;11.054;2024-03-06T08:50:01;21.30;;;9.10;;
6109;SDS011;3085;49.444;11.054;2024-03-06T08:52:28;28.43;;;10.87;;
6109;SDS011;3085;49.444;11.054;2024-03-06T08:54:55;28.33;;;11.27;;
6109;SDS011;3085;49.444;11.054;2024-03-06T08:57:24;27.63;;;11.00;;
6109;SDS011;3085;49.444;11.054;2024-03-06T08:59:53;25.50;;;9.90;;
6109;SDS011;3085;49.444;11.054;2024-03-06T09:02:20;29.17;;;9.40;;
6109;SDS011;3085;49.444;11.054;2024-03-06T09:04:46;32.43;;;12.10;;
6109;SDS011;3085;49.444;11.054;2024-03-06T09:07:13;33.77;;;11.23;;
6109;SDS011;3085;49.444;11.054;2024-03-06T09:09:40;30.10;;;11.50;;
6109;SDS011;3085;49.444;11.054;2024-03-06T09:12:08;33.27;;;10.23;;
6109;SDS011;3085;49.444;11.054;2024-03-06T09:14:37;32.37;;;11.93;;
6109;SDS011;3085;49.444;11.054;2024-03-06T09:17:05;28.17;;;12.00;;
6109;SDS011;3085;49.444;11.054;2024-03-06T09:19:32;26.40;;;10.07;;
6109;SDS011;3085;49.444;11.054;2024-03-06T09:21:59;24.53;;;8.97;;
6109;SDS011;3085;49.444;11.054;2024-03-06T09:24:25;34.87;;;11.10;;
6109;SDS011;3085;49.444;11.054;2024-03-06T09:26:53;34.40;;;11.60;;
6109;SDS011;3085;49.444;11.054;2024-03-06T09:29:20;23.70;;;9.20;;
6109;SDS011;3085;49.444;11.054;2024-03-06T09:31:48;23.80;;;9.77;;
6109;SDS011;3085;49.444;11.054;2024-03-06T09:34:15;28.20;;;11.97;;
6109;SDS011;3085;49.444;11.054;2024-03-06T09:36:45;24.40;;;9.70;;
6109;SDS011;3085;49.444;11.054;2024-03-06T09:39:13;29.30;;;9.43;;
6109;SDS011;3085;49.444;11.054;2024-03-06T09:41:41;36.10;;;11.47;;
6109;SDS011;3085;49.444;11.054;2024-03-06T09:44:08;23.43;;;9.83;;
6109;SDS011;3085;49.444;11.054;2024-03-06T09:46:35;29.33;;;11.60;;
6109;SDS011;3085;49.444;11.054;2024-03-06T09:49:04;24.50;;;9.20;;
6109;SDS011;3085;49.444;11.054;2024-03-06T09:51:33;22.40;;;9.33;;
6109;SDS011;3085;49.444;11.054;2024-03-06T09:54:01;31.00;;;11.03;;
6109;SDS011;3085;49.444;11.054;2024-03-06T09:56:29;22.00;;;9.37;;
6109;SDS011;3085;49.444;11.054;2024-03-06T09:58:55;31.20;;;10.03;;
6109;SDS011;3085;49.444;11.054;2024-03-06T10:01:22;29.30;;;10.60;;
6109;SDS011;3085;49.444;11.054;2024-03-06T10:03:51;25.97;;;9.97;;
6109;SDS011;3085;49.444;11.054;2024-03-06T10:06:19;31.40;;;12.10;;
6109;SDS011;3085;49.444;11.054;2024-03-06T10:08:46;23.90;;;8.70;;
6109;SDS011;3085;49.444;11.054;2024-03-06T10:11:14;28.07;;;10.13;;
6109;SDS011;3085;49.444;11.054;2024-03-06T10:13:42;33.93;;;10.43;;
6109;SDS011;3085;49.444;11.054;2024-03-06T10:16:08;32.40;;;10.37;;
6109;SDS011;3085;49.444;11.054;2024-03-06T10:18:36;25.40;;;11.40;;
6109;SDS011;3085;49.444;11.054;2024-03-06T10:21:04;42.60;;;11.93;;
6109;SDS011;3085;49.444;11.054;2024-03-06T10:23:32;31.50;;;10.40;;
6109;SDS011;3085;49.444;11.054;2024-03-06T10:26:02;26.10;;;10.53;;
6109;SDS011;3085;49.444;11.054;2024-03-06T10:28:29;37.20;;;10.63;;
6109;SDS011;3085;49.444;11.054;2024-03-06T10:31:02;30.27;;;11.23;;
6109;SDS011;3085;49.444;11.054;2024-03-06T10:33:31;47.47;;;11.83;;
6109;SDS011;3085;49.444;11.054;2024-03-06T10:35:58;29.30;;;8.93;;
6109;SDS011;3085;49.444;11.054;2024-03-06T10:38:24;34.30;;;11.50;;
6109;SDS011;3085;49.444;11.054;2024-03-06T10:40:59;30.20;;;11.23;;
6109;SDS011;3085;49.444;11.054;2024-03-06T10:43:27;23.47;;;9.43;;
6109;SDS011;3085;49.444;11.054;2024-03-06T10:45:57;26.67;;;10.47;;
6109;SDS011;3085;49.444;11.054;2024-03-06T10:48:29;33.40;;;10.03;;
6109;SDS011;3085;49.444;11.054;2024-03-06T10:50:56;35.40;;;11.60;;
6109;SDS011;3085;49.444;11.054;2024-03-06T10:53:25;25.60;;;11.87;;
6109;SDS011;3085;49.444;11.054;2024-03-06T10:55:52;34.70;;;10.53;;
6109;SDS011;3085;49.444;11.054;2024-03-06T10:58:21;26.63;;;10.33;;
6109;SDS011;3085;49.444;11.054;2024-03-06T11:00:49;24.20;;;10.57;;
6109;SDS011;3085;49.444;11.054;2024-03-06T11:03:22;32.83;;;11.13;;
6109;SDS011;3085;49.444;11.054;2024-03-06T11:05:51;23.93;;;9.23;;
6109;SDS011;3085;49.444;11.054;2024-03-06T11:08:18;28.37;;;9.87;;
6109;SDS011;3085;49.444;11.054;2024-03-06T11:10:46;23.63;;;10.37;;
6109;SDS011;3085;49.444;11.054;2024-03-06T11:13:22;27.10;;;10.37;;
6109;SDS011;3085;49.444;11.054;2024-03-06T11:15:51;34.30;;;10.10;;
6109;SDS011;3085;49.444;11.054;2024-03-06T11:24:12;25.37;;;10.10;;
6109;SDS011;3085;49.444;11.054;2024-03-06T11:26:41;29.83;;;10.10;;
6109;SDS011;3085;49.444;11.054;2024-03-06T11:29:11;29.50;;;10.43;;
6109;SDS011;3085;49.444;11.054;2024-03-06T11:31:39;28.20;;;9.47;;
6109;SDS011;3085;49.444;11.054;2024-03-06T11:34:31;30.70;;;11.00;;
6109;SDS011;3085;49.444;11.054;2024-03-06T11:36:58;28.10;;;9.60;;
6109;SDS011;3085;49.444;11.054;2024-03-06T11:39:27;23.10;;;9.60;;
6109;SDS011;3085;49.444;11.054;2024-03-06T11:41:55;19.30;;;9.03;;
6109;SDS011;3085;49.444;11.054;2024-03-06T11:44:23;25.97;;;10.67;;
6109;SDS011;3085;49.444;11.054;2024-03-06T11:46:57;22.93;;;9.27;;
6109;SDS011;3085;49.444;11.054;2024-03-06T11:49:25;25.33;;;11.03;;
6109;SDS011;3085;49.444;11.054;2024-03-06T11:51:54;29.00;;;10.30;;
6109;SDS011;3085;49.444;11.054;2024-03-06T11:54:22;21.67;;;8.73;;
6109;SDS011;3085;49.444;11.054;2024-03-06T11:56:51;39.53;;;11.70;;
6109;SDS011;3085;49.444;11.054;2024-03-06T11:59:21;27.67;;;9.13;;
6109;SDS011;3085;49.444;11.054;2024-03-06T12:01:49;27.37;;;10.37;;
6109;SDS011;3085;49.444;11.054;2024-03-06T12:04:16;28.53;;;10.87;;
6109;SDS011;3085;49.444;11.054;2024-03-06T12:06:45;27.87;;;10.90;;
6109;SDS011;3085;49.444;11.054;2024-03-06T12:09:11;23.87;;;9.90;;
6109;SDS011;3085;49.444;11.054;2024-03-06T12:11:38;29.43;;;9.80;;
6109;SDS011;3085;49.444;11.054;2024-03-06T12:14:06;31.33;;;10.00;;
6109;SDS011;3085;49.444;11.054;2024-03-06T12:16:34;34.97;;;10.43;;
6109;SDS011;3085;49.444;11.054;2024-03-06T12:19:02;30.07;;;10.10;;
6109;SDS011;3085;49.444;11.054;2024-03-06T12:21:30;32.33;;;11.43;;
6109;SDS011;3085;49.444;11.054;2024-03-06T12:24:04;25.93;;;8.83;;
6109;SDS011;3085;49.444;11.054;2024-03-06T12:26:32;26.70;;;9.37;;
6109;SDS011;3085;49.444;11.054;2024-03-06T12:29:05;22.57;;;7.90;;
6109;SDS011;3085;49.444;11.054;2024-03-06T12:31:31;16.37;;;7.57;;
6109;SDS011;3085;49.444;11.054;2024-03-06T12:33:58;27.40;;;9.43;;
6109;SDS011;3085;49.444;11.054;2024-03-06T12:36:29;21.37;;;8.23;;
6109;SDS011;3085;49.444;11.054;2024-03-06T12:38:56;22.50;;;8.07;;
6109;SDS011;3085;49.444;11.054;2024-03-06T12:41:24;16.30;;;7.73;;
6109;SDS011;3085;49.444;11.054;2024-03-06T12:43:52;21.73;;;8.77;;
6109;SDS011;3085;49.444;11.054;2024-03-06T12:46:19;24.77;;;8.33;;
6109;SDS011;3085;49.444;11.054;2024-03-06T12:48:46;20.40;;;6.87;;
6109;SDS011;3085;49.444;11.054;2024-03-06T12:51:13;19.00;;;7.77;;
6109;SDS011;3085;49.444;11.054;2024-03-06T12:53:41;27.13;;;8.23;;
6109;SDS011;3085;49.444;11.054;2024-03-06T12:56:08;20.57;;;7.30;;
6109;SDS011;3085;49.444;11.054;2024-03-06T12:58:35;17.73;;;8.13;;
6109;SDS011;3085;49.444;11.054;2024-03-06T13:01:01;24.57;;;8.53;;
6109;SDS011;3085;49.444;11.054;2024-03-06T13:03:28;18.60;;;8.50;;
6109;SDS011;3085;49.444;11.054;2024-03-06T13:05:55;20.60;;;9.33;;
6109;SDS011;3085;49.444;11.054;2024-03-06T13:08:23;30.20;;;9.30;;
6109;SDS011;3085;49.444;11.054;2024-03-06T13:10:51;23.83;;;7.10;;
6109;SDS011;3085;49.444;11.054;2024-03-06T13:13:18;18.73;;;8.43;;
6109;SDS011;3085;49.444;11.054;2024-03-06T13:15:45;15.90;;;6.60;;
6109;SDS011;3085;49.444;11.054;2024-03-06T13:18:13;22.47;;;9.20;;
6109;SDS011;3085;49.444;11.054;2024-03-06T13:20:40;26.93;;;9.63;;
6109;SDS011;3085;49.444;11.054;2024-03-06T13:23:07;21.23;;;7.77;;
6109;SDS011;3085;49.444;11.054;2024-03-06T13:25:33;15.70;;;7.20;;
6109;SDS011;3085;49.444;11.054;2024-03-06T13:28:01;22.80;;;7.93;;
6109;SDS011;3085;49.444;11.054;2024-03-06T13:30:28;24.90;;;8.93;;
6109;SDS011;3085;49.444;11.054;2024-03-06T13:32:55;22.13;;;8.20;;
6109;SDS011;3085;49.444;11.054;2024-03-06T13:35:21;17.80;;;7.73;;
6109;SDS011;3085;49.444;11.054;2024-03-06T13:37:48;26.87;;;9.03;;
6109;SDS011;3085;49.444;11.054;2024-03-06T13:40:15;21.40;;;8.40;;
6109;SDS011;3085;49.444;11.054;2024-03-06T13:42:42;24.70;;;9.57;;
6109;SDS011;3085;49.444;11.054;2024-03-06T13:45:10;28.20;;;9.70;;
6109;SDS011;3085;49.444;11.054;2024-03-06T13:47:37;20.93;;;7.40;;
6109;SDS011;3085;49.444;11.054;2024-03-06T13:50:06;26.67;;;9.33;;
6109;SDS011;3085;49.444;11.054;2024-03-06T13:52:34;14.70;;;7.73;;
6109;SDS011;3085;49.444;11.054;2024-03-06T13:55:01;19.60;;;8.20;;
6109;SDS011;3085;49.444;11.054;2024-03-06T13:57:29;20.87;;;8.33;;
6109;SDS011;3085;49.444;11.054;2024-03-06T13:59:58;27.30;;;9.90;;
6109;SDS011;3085;49.444;11.054;2024-03-06T14:02:26;23.33;;;8.60;;
6109;SDS011;3085;49.444;11.054;2024-03-06T14:04:53;22.23;;;8.93;;
6109;SDS011;3085;49.444;11.054;2024-03-06T14:07:19;22.17;;;8.70;;
6109;SDS011;3085;49.444;11.054;2024-03-06T14:09:46;22.33;;;8.37;;
6109;SDS011;3085;49.444;11.054;2024-03-06T14:12:14;21.93;;;8.93;;
6109;SDS011;3085;49.444;11.054;2024-03-06T14:14:41;25.73;;;9.87;;
6109;SDS011;3085;49.444;11.054;2024-03-06T14:17:11;22.53;;;8.20;;
6109;SDS011;3085;49.444;11.054;2024-03-06T14:19:39;17.63;;;8.27;;
6109;SDS011;3085;49.444;11.054;2024-03-06T14:22:06;22.40;;;8.80;;
6109;SDS011;3085;49.444;11.054;2024-03-06T14:24:33;26.00;;;9.63;;
6109;SDS011;3085;49.444;11.054;2024-03-06T14:27:00;23.67;;;7.53;;
6109;SDS011;3085;49.444;11.054;2024-03-06T14:29:27;23.10;;;9.00;;
6109;SDS011;3085;49.444;11.054;2024-03-06T14:31:54;21.57;;;9.33;;
6109;SDS011;3085;49.444;11.054;2024-03-06T14:34:22;24.43;;;8.50;;
6109;SDS011;3085;49.444;11.054;2024-03-06T14:36:51;22.67;;;8.67;;
6109;SDS011;3085;49.444;11.054;2024-03-06T14:39:17;26.63;;;9.07;;
6109;SDS011;3085;49.444;11.054;2024-03-06T14:41:47;21.93;;;9.77;;
6109;SDS011;3085;49.444;11.054;2024-03-06T14:44:13;29.63;;;9.80;;
6109;SDS011;3085;49.444;11.054;2024-03-06T14:46:40;20.67;;;7.20;;